createdAt,value
2018-08-28T00:01:53.264Z,12.40
2018-08-28T00:04:21.994Z,12.50
2018-08-28T00:06:52.344Z,12.60
2018-08-28T00:09:21.394Z,12.70
2018-08-28T00:11:49.764Z,12.80
2018-08-28T00:14:18.069Z,12.90
2018-08-28T00:16:46.333Z,12.90
2018-08-28T00:19:14.596Z,13.00
2018-08-28T00:21:42.874Z,13.00
2018-08-28T00:24:11.138Z,13.00
2018-08-28T00:26:39.435Z,13.00
2018-08-28T00:29:07.719Z,13.00
2018-08-28T00:31:36.012Z,13.10
2018-08-28T00:34:04.274Z,13.20
2018-08-28T00:36:32.601Z,13.20
2018-08-28T00:39:00.907Z,13.20
2018-08-28T00:41:29.180Z,13.30
2018-08-28T00:43:57.463Z,13.20
2018-08-28T00:46:25.735Z,13.20
2018-08-28T00:48:54.005Z,13.20
2018-08-28T00:51:22.297Z,13.20
2018-08-28T00:53:50.563Z,13.30
2018-08-28T00:56:18.798Z,13.40
2018-08-28T00:58:47.077Z,13.50
2018-08-28T01:01:15.309Z,13.40
2018-08-28T01:03:43.564Z,13.30
2018-08-28T01:06:11.915Z,13.20
2018-08-28T01:08:40.144Z,13.20
2018-08-28T01:11:08.899Z,13.10
2018-08-28T01:13:37.134Z,13.00
2018-08-28T01:16:05.553Z,13.00
2018-08-28T01:18:33.818Z,13.00
2018-08-28T01:21:02.087Z,13.10
2018-08-28T01:23:30.381Z,13.20
2018-08-28T01:25:58.648Z,13.30
2018-08-28T01:28:26.882Z,13.30
2018-08-28T01:30:55.114Z,13.20
2018-08-28T01:33:23.367Z,13.30
2018-08-28T01:35:51.599Z,13.30
2018-08-28T01:38:19.841Z,13.20
2018-08-28T01:40:48.072Z,13.20
2018-08-28T01:43:21.827Z,13.30
2018-08-28T01:45:50.065Z,13.20
2018-08-28T01:48:18.359Z,13.20
2018-08-28T01:50:46.645Z,13.20
2018-08-28T01:53:14.869Z,13.30
2018-08-28T01:55:43.412Z,13.30
2018-08-28T01:58:11.664Z,13.30
2018-08-28T02:00:39.901Z,13.30
2018-08-28T02:03:08.142Z,13.30
2018-08-28T02:05:36.367Z,13.30
2018-08-28T02:08:04.745Z,13.40
2018-08-28T02:10:32.990Z,13.30
2018-08-28T02:13:01.261Z,13.40
2018-08-28T02:15:29.478Z,13.50
2018-08-28T02:17:57.718Z,13.50
2018-08-28T02:20:25.973Z,13.50
2018-08-28T02:22:54.217Z,13.50
2018-08-28T02:25:22.452Z,13.50
2018-08-28T02:27:50.743Z,13.50
2018-08-28T02:30:18.999Z,13.50
2018-08-28T02:32:47.267Z,13.50
2018-08-28T02:35:15.527Z,13.60
2018-08-28T02:37:43.804Z,13.60
2018-08-28T02:40:12.073Z,13.60
2018-08-28T02:42:40.370Z,13.70
2018-08-28T02:45:08.701Z,13.70
2018-08-28T02:47:36.958Z,13.60
2018-08-28T02:50:05.478Z,13.60
2018-08-28T02:52:33.743Z,13.50
2018-08-28T02:55:01.979Z,13.50
2018-08-28T02:57:30.233Z,13.30
2018-08-28T02:59:58.599Z,13.10
2018-08-28T03:02:26.843Z,12.90
2018-08-28T03:04:55.084Z,12.80
2018-08-28T03:07:23.340Z,12.70
2018-08-28T03:09:51.569Z,12.70
2018-08-28T03:12:19.809Z,12.50
2018-08-28T03:14:48.043Z,12.40
2018-08-28T03:17:16.298Z,12.30
2018-08-28T03:19:44.540Z,12.30
2018-08-28T03:22:12.912Z,12.20
2018-08-28T03:24:41.170Z,12.10
2018-08-28T03:27:09.415Z,12.00
2018-08-28T03:29:37.694Z,11.90
2018-08-28T03:32:05.943Z,11.90
2018-08-28T03:34:34.611Z,11.90
2018-08-28T03:37:03.026Z,11.90
2018-08-28T03:39:31.271Z,11.90
2018-08-28T03:41:59.510Z,12.00
2018-08-28T03:44:27.772Z,11.90
2018-08-28T03:46:56.004Z,12.00
2018-08-28T03:49:24.263Z,11.90
2018-08-28T03:51:52.499Z,12.00
2018-08-28T03:54:20.759Z,12.10
2018-08-28T03:56:49.026Z,12.10
2018-08-28T03:59:17.295Z,12.00
2018-08-28T04:01:45.555Z,11.90
2018-08-28T04:04:13.803Z,11.80
2018-08-28T04:06:42.096Z,11.80
2018-08-28T04:09:11.794Z,11.70
2018-08-28T04:11:40.190Z,11.60
2018-08-28T04:14:08.579Z,11.60
2018-08-28T04:16:36.886Z,11.50
2018-08-28T04:19:05.608Z,11.40
2018-08-28T04:21:33.876Z,11.30
2018-08-28T04:24:02.156Z,11.30
2018-08-28T04:26:30.411Z,11.30
2018-08-28T04:28:58.689Z,11.30
2018-08-28T04:31:27.051Z,11.30
2018-08-28T04:33:55.377Z,11.30
2018-08-28T04:36:23.642Z,11.40
2018-08-28T04:38:51.995Z,11.40
2018-08-28T04:41:20.256Z,11.40
2018-08-28T04:43:48.507Z,11.40
2018-08-28T04:46:16.791Z,11.40
2018-08-28T04:48:45.166Z,11.50
2018-08-28T04:51:13.390Z,11.70
2018-08-28T04:53:41.700Z,11.80
2018-08-28T04:56:09.948Z,12.00
2018-08-28T04:58:38.338Z,12.20
2018-08-28T05:01:06.608Z,12.30
2018-08-28T05:03:34.867Z,12.40
2018-08-28T05:06:03.135Z,12.40
2018-08-28T05:08:31.987Z,12.50
2018-08-28T05:11:00.218Z,12.50
2018-08-28T05:13:28.439Z,12.50
2018-08-28T05:15:56.875Z,12.50
2018-08-28T05:18:25.095Z,12.60
2018-08-28T05:20:53.372Z,12.60
2018-08-28T05:23:22.342Z,12.60
2018-08-28T05:25:50.666Z,12.50
2018-08-28T05:30:47.142Z,12.40
2018-08-28T05:33:15.395Z,12.50
2018-08-28T05:35:43.640Z,12.50
2018-08-28T05:38:11.951Z,12.60
2018-08-28T05:40:40.191Z,12.70
2018-08-28T05:43:08.499Z,12.80
2018-08-28T05:45:36.778Z,12.90
2018-08-28T05:48:05.155Z,12.90
2018-08-28T05:50:33.400Z,13.00
2018-08-28T05:53:02.779Z,13.20
2018-08-28T05:55:33.310Z,13.30
2018-08-28T05:58:02.715Z,13.30
2018-08-28T06:00:40.915Z,13.40
2018-08-28T06:03:09.628Z,13.50
2018-08-28T06:05:37.931Z,13.60
2018-08-28T06:08:06.451Z,13.60
2018-08-28T06:10:34.718Z,13.70
2018-08-28T06:13:03.055Z,13.80
2018-08-28T06:15:31.324Z,13.90
2018-08-28T06:17:59.681Z,14.00
2018-08-28T06:20:28.258Z,14.10
2018-08-28T06:22:56.692Z,14.30
2018-08-28T06:25:25.974Z,14.30
2018-08-28T06:27:59.718Z,14.50
2018-08-28T06:30:28.015Z,14.70
2018-08-28T06:32:56.314Z,14.70
2018-08-28T06:35:24.675Z,14.90
2018-08-28T06:37:52.935Z,15.20
2018-08-28T06:40:21.800Z,15.30
2018-08-28T06:42:50.373Z,15.40
2018-08-28T06:45:18.747Z,15.60
2018-08-28T06:47:47.251Z,15.70
2018-08-28T06:50:15.723Z,15.80
2018-08-28T06:52:43.983Z,16.00
2018-08-28T06:55:12.259Z,16.30
2018-08-28T06:57:41.505Z,16.50
2018-08-28T07:00:09.822Z,16.60
2018-08-28T07:02:38.511Z,16.80
2018-08-28T07:05:06.928Z,16.80
2018-08-28T07:07:35.225Z,16.90
2018-08-28T07:10:03.748Z,17.10
2018-08-28T07:12:32.078Z,17.30
2018-08-28T07:15:00.335Z,17.50
2018-08-28T07:17:28.638Z,17.60
2018-08-28T07:19:56.904Z,17.90
2018-08-28T07:22:26.171Z,18.20
2018-08-28T07:24:54.440Z,18.40
2018-08-28T07:27:22.725Z,18.60
2018-08-28T07:29:51.000Z,18.90
2018-08-28T07:32:19.275Z,19.90
2018-08-28T07:34:47.549Z,21.30
2018-08-28T07:37:15.898Z,22.60
2018-08-28T07:39:44.145Z,24.80
2018-08-28T07:42:12.453Z,26.50
2018-08-28T07:44:40.729Z,27.00
2018-08-28T07:47:09.022Z,29.60
2018-08-28T07:49:37.303Z,30.00
2018-08-28T07:52:05.760Z,30.90
2018-08-28T07:54:34.039Z,30.60
2018-08-28T07:57:02.342Z,31.00
2018-08-28T07:59:30.636Z,31.00
2018-08-28T08:01:58.928Z,31.60
2018-08-28T08:04:27.207Z,32.10
2018-08-28T08:06:55.524Z,33.10
2018-08-28T08:09:23.794Z,33.30
2018-08-28T08:11:52.064Z,32.30
2018-08-28T08:14:20.759Z,34.10
2018-08-28T08:16:49.063Z,36.00
2018-08-28T08:19:17.398Z,35.90
2018-08-28T08:21:45.704Z,35.80
2018-08-28T08:24:14.058Z,36.10
2018-08-28T08:26:43.183Z,33.50
2018-08-28T08:29:11.554Z,31.00
2018-08-28T08:31:39.976Z,29.10
2018-08-28T08:34:08.370Z,27.80
2018-08-28T08:36:36.914Z,27.30
2018-08-28T08:39:07.222Z,26.30
2018-08-28T08:41:36.485Z,25.90
2018-08-28T08:44:04.915Z,25.30
2018-08-28T08:46:33.228Z,24.20
2018-08-28T08:49:01.578Z,23.80
2018-08-28T08:51:29.903Z,23.10
2018-08-28T08:53:58.285Z,22.80
2018-08-28T08:56:26.607Z,22.80
2018-08-28T08:58:54.934Z,23.50
2018-08-28T09:01:23.252Z,23.60
2018-08-28T09:03:51.561Z,23.70
2018-08-28T09:06:19.915Z,25.00
2018-08-28T09:08:48.566Z,27.30
2018-08-28T09:11:16.931Z,28.90
2018-08-28T09:13:45.220Z,29.40
2018-08-28T09:16:13.575Z,31.50
2018-08-28T09:18:42.196Z,31.50
2018-08-28T09:21:10.523Z,30.20
2018-08-28T09:23:38.804Z,30.40
2018-08-28T09:26:07.085Z,30.90
2018-08-28T09:28:35.525Z,32.20
2018-08-28T09:31:03.835Z,33.50
2018-08-28T09:33:32.112Z,34.10
2018-08-28T09:36:00.379Z,34.20
2018-08-28T09:38:28.809Z,35.60
2018-08-28T09:40:56.935Z,35.80
2018-08-28T09:43:25.243Z,34.90
2018-08-28T09:45:53.512Z,34.50
2018-08-28T09:48:21.851Z,35.90
2018-08-28T09:50:50.162Z,35.70
2018-08-28T09:53:18.602Z,36.00
2018-08-28T09:55:46.912Z,34.80
2018-08-28T09:58:15.170Z,34.10
2018-08-28T10:00:48.958Z,34.70
2018-08-28T10:03:17.227Z,36.30
2018-08-28T10:05:45.559Z,35.90
2018-08-28T10:08:13.812Z,35.20
2018-08-28T10:10:42.166Z,35.90
2018-08-28T10:13:16.086Z,37.10
2018-08-28T10:15:52.826Z,36.40
2018-08-28T10:18:21.082Z,36.00
2018-08-28T10:20:49.672Z,37.50
2018-08-28T10:23:18.027Z,36.30
2018-08-28T10:25:46.529Z,36.30
2018-08-28T10:28:14.775Z,35.50
2018-08-28T10:30:43.124Z,36.80
2018-08-28T10:33:11.374Z,36.30
2018-08-28T10:35:39.826Z,36.80
2018-08-28T10:38:08.104Z,35.60
2018-08-28T10:40:36.333Z,35.10
2018-08-28T10:43:04.672Z,34.80
2018-08-28T10:45:33.404Z,35.20
2018-08-28T10:48:01.984Z,34.40
2018-08-28T10:50:30.400Z,34.80
2018-08-28T10:52:58.731Z,34.90
2018-08-28T10:55:27.199Z,35.40
2018-08-28T10:57:55.494Z,34.30
2018-08-28T11:00:23.771Z,34.90
2018-08-28T11:02:52.051Z,35.00
2018-08-28T11:05:20.336Z,34.20
2018-08-28T11:07:48.791Z,34.50
2018-08-28T11:10:17.114Z,35.50
2018-08-28T11:12:45.462Z,36.10
2018-08-28T11:15:13.732Z,36.90
2018-08-28T11:17:42.051Z,37.60
2018-08-28T11:20:10.338Z,38.10
2018-08-28T11:22:38.616Z,38.60
2018-08-28T11:25:06.883Z,38.10
2018-08-28T11:27:35.164Z,37.30
2018-08-28T11:30:03.494Z,36.70
2018-08-28T11:32:31.893Z,35.90
2018-08-28T11:35:00.192Z,36.10
2018-08-28T11:37:28.464Z,35.10
2018-08-28T11:39:57.065Z,34.90
2018-08-28T11:42:25.367Z,33.50
2018-08-28T11:44:53.766Z,33.70
2018-08-28T11:47:22.051Z,33.90
2018-08-28T11:49:50.326Z,33.20
2018-08-28T11:52:18.631Z,34.00
2018-08-28T11:54:46.937Z,34.00
2018-08-28T11:57:15.234Z,33.60
2018-08-28T11:59:43.527Z,32.60
2018-08-28T12:02:11.787Z,33.20
2018-08-28T12:04:40.118Z,33.50
2018-08-28T12:07:08.703Z,32.70
2018-08-28T12:09:36.982Z,31.40
2018-08-28T12:12:05.420Z,31.30
2018-08-28T12:14:33.694Z,31.40
2018-08-28T12:17:02.118Z,31.10
2018-08-28T12:19:30.414Z,31.40
2018-08-28T12:21:59.039Z,31.30
2018-08-28T12:24:27.580Z,32.40
2018-08-28T12:26:55.855Z,32.00
2018-08-28T12:29:24.162Z,32.30
2018-08-28T12:31:52.455Z,32.70
2018-08-28T12:34:20.719Z,32.70
2018-08-28T12:36:49.485Z,33.00
2018-08-28T12:39:17.678Z,32.60
2018-08-28T12:41:45.992Z,31.80
2018-08-28T12:44:14.262Z,31.70
2018-08-28T12:46:42.622Z,31.90
2018-08-28T12:49:10.992Z,31.70
2018-08-28T12:51:39.294Z,31.90
2018-08-28T12:54:07.594Z,30.30
2018-08-28T12:56:35.879Z,30.20
2018-08-28T12:59:04.131Z,30.20
2018-08-28T13:01:32.390Z,30.80
2018-08-28T13:04:00.914Z,30.50
2018-08-28T13:06:29.267Z,31.10
2018-08-28T13:08:57.872Z,30.80
2018-08-28T13:11:26.751Z,30.30
2018-08-28T13:13:55.183Z,30.50
2018-08-28T13:16:23.474Z,29.70
2018-08-28T13:18:51.751Z,30.30
2018-08-28T13:21:20.030Z,30.20
2018-08-28T13:23:48.271Z,30.10
2018-08-28T13:26:16.603Z,30.80
2018-08-28T13:28:44.863Z,31.30
2018-08-28T13:31:13.261Z,31.90
2018-08-28T13:33:41.532Z,30.90
2018-08-28T13:36:09.783Z,31.50
2018-08-28T13:38:38.198Z,32.00
2018-08-28T13:41:06.585Z,32.30
2018-08-28T13:43:34.987Z,32.00
2018-08-28T13:46:03.337Z,32.60
2018-08-28T13:48:31.642Z,32.80
2018-08-28T13:50:59.925Z,33.00
2018-08-28T13:53:28.260Z,32.00
2018-08-28T13:55:56.570Z,31.80
2018-08-28T13:58:24.838Z,31.20
2018-08-28T14:00:53.122Z,31.40
2018-08-28T14:03:21.698Z,31.20
2018-08-28T14:05:49.967Z,31.10
2018-08-28T14:08:18.305Z,31.40
2018-08-28T14:10:46.635Z,31.60
2018-08-28T14:13:15.108Z,31.90
2018-08-28T14:15:43.542Z,31.80
2018-08-28T14:18:11.837Z,30.80
2018-08-28T14:20:40.196Z,30.30
2018-08-28T14:23:08.643Z,29.50
2018-08-28T14:25:37.030Z,28.90
2018-08-28T14:28:05.836Z,28.80
2018-08-28T14:30:34.314Z,28.70
2018-08-28T14:33:02.626Z,28.40
2018-08-28T14:35:32.031Z,28.50
2018-08-28T14:38:00.350Z,28.80
2018-08-28T14:40:28.674Z,29.10
2018-08-28T14:42:56.954Z,28.90
2018-08-28T14:45:25.402Z,28.50
2018-08-28T14:47:53.820Z,28.50
2018-08-28T14:50:22.404Z,28.70
2018-08-28T14:52:50.654Z,28.90
2018-08-28T14:55:18.972Z,29.00
2018-08-28T14:57:47.240Z,28.90
2018-08-28T15:00:15.559Z,28.90
2018-08-28T15:02:43.808Z,28.90
2018-08-28T15:05:12.084Z,28.60
2018-08-28T15:07:40.411Z,28.40
2018-08-28T15:10:08.830Z,28.20
2018-08-28T15:12:37.108Z,28.10
2018-08-28T15:15:05.694Z,28.20
2018-08-28T15:17:33.995Z,28.00
2018-08-28T15:20:02.407Z,27.90
2018-08-28T15:22:30.906Z,27.90
2018-08-28T15:25:06.301Z,27.70
2018-08-28T15:27:35.176Z,27.50
2018-08-28T15:30:03.455Z,27.30
2018-08-28T15:32:31.741Z,27.30
2018-08-28T15:35:00.126Z,27.10
2018-08-28T15:37:28.532Z,27.10
2018-08-28T15:39:56.782Z,27.00
2018-08-28T15:42:25.030Z,26.70
2018-08-28T15:44:53.278Z,26.30
2018-08-28T15:47:21.662Z,26.30
2018-08-28T15:49:49.988Z,26.20
2018-08-28T15:52:18.239Z,26.20
2018-08-28T15:54:46.534Z,26.10
2018-08-28T15:57:15.170Z,26.00
2018-08-28T15:59:43.462Z,26.10
2018-08-28T16:02:12.166Z,26.10
2018-08-28T16:04:40.488Z,26.10
2018-08-28T16:07:08.724Z,26.20
2018-08-28T16:09:37.088Z,26.20
2018-08-28T16:12:05.790Z,26.10
2018-08-28T16:14:34.050Z,26.00
2018-08-28T16:17:02.351Z,25.90
2018-08-28T16:19:30.812Z,25.80
2018-08-28T16:22:00.607Z,25.70
2018-08-28T16:24:28.876Z,25.60
2018-08-28T16:26:57.170Z,25.50
2018-08-28T16:29:25.462Z,25.60
2018-08-28T16:31:53.715Z,25.50
2018-08-28T16:34:21.998Z,25.40
2018-08-28T16:36:50.345Z,25.40
2018-08-28T16:39:18.668Z,25.30
2018-08-28T16:41:46.942Z,25.20
2018-08-28T16:44:15.223Z,25.10
2018-08-28T16:46:43.552Z,25.10
2018-08-28T16:49:11.779Z,25.00
2018-08-28T16:51:40.047Z,25.00
2018-08-28T16:54:08.310Z,24.80
2018-08-28T16:56:36.552Z,24.80
2018-08-28T16:59:05.053Z,24.60
2018-08-28T17:01:33.891Z,24.50
2018-08-28T17:04:02.033Z,24.40
2018-08-28T17:06:30.279Z,24.30
2018-08-28T17:08:58.535Z,24.20
2018-08-28T17:11:26.790Z,24.10
2018-08-28T17:13:55.031Z,24.00
2018-08-28T17:16:23.292Z,24.00
2018-08-28T17:18:51.958Z,23.90
2018-08-28T17:21:20.316Z,23.80
2018-08-28T17:23:48.907Z,23.60
2018-08-28T17:26:17.179Z,23.50
2018-08-28T17:28:45.687Z,23.50
2018-08-28T17:31:13.934Z,23.30
2018-08-28T17:33:42.522Z,23.20
2018-08-28T17:36:11.496Z,23.10
2018-08-28T17:38:40.505Z,23.00
2018-08-28T17:41:10.358Z,22.90
2018-08-28T17:43:38.670Z,22.70
2018-08-28T17:46:07.068Z,22.50
2018-08-28T17:48:35.363Z,22.40
2018-08-28T17:51:03.627Z,22.20
2018-08-28T17:53:31.927Z,22.00
2018-08-28T17:56:00.171Z,21.80
2018-08-28T17:58:28.412Z,21.60
2018-08-28T18:00:56.688Z,21.30
2018-08-28T18:03:25.129Z,21.10
2018-08-28T18:05:53.367Z,20.90
2018-08-28T18:08:21.621Z,20.80
2018-08-28T18:10:49.972Z,20.50
2018-08-28T18:13:18.138Z,20.30
2018-08-28T18:15:46.794Z,20.10
2018-08-28T18:18:15.071Z,20.00
2018-08-28T18:20:43.339Z,19.80
2018-08-28T18:23:12.103Z,19.70
2018-08-28T18:25:40.400Z,19.50
2018-08-28T18:28:08.819Z,19.30
2018-08-28T18:30:37.589Z,19.20
2018-08-28T18:33:05.854Z,19.10
2018-08-28T18:35:34.207Z,19.10
2018-08-28T18:38:02.446Z,19.00
2018-08-28T18:40:30.940Z,18.80
2018-08-28T18:42:59.695Z,18.70
2018-08-28T18:45:28.327Z,18.50
2018-08-28T18:47:57.045Z,18.40
2018-08-28T18:50:26.467Z,18.30
2018-08-28T18:52:55.922Z,18.10
2018-08-28T18:55:24.742Z,17.90
2018-08-28T18:57:53.894Z,17.80
2018-08-28T19:00:22.437Z,17.60
2018-08-28T19:02:51.976Z,17.60
2018-08-28T19:05:20.347Z,17.50
2018-08-28T19:07:48.860Z,17.30
2018-08-28T19:10:17.754Z,17.20
2018-08-28T19:12:46.459Z,17.00
2018-08-28T19:15:15.282Z,16.90
2018-08-28T19:17:44.955Z,16.90
2018-08-28T19:20:13.675Z,16.80
2018-08-28T19:22:42.710Z,16.70
2018-08-28T19:25:11.829Z,16.60
2018-08-28T19:27:40.482Z,16.50
2018-08-28T19:30:09.482Z,16.40
2018-08-28T19:32:38.294Z,16.30
2018-08-28T19:35:07.304Z,16.10
2018-08-28T19:37:35.865Z,16.10
2018-08-28T19:40:04.528Z,15.90
2018-08-28T19:42:33.401Z,15.70
2018-08-28T19:45:02.525Z,15.70
2018-08-28T19:47:31.444Z,15.60
2018-08-28T19:50:00.362Z,15.50
2018-08-28T19:52:29.029Z,15.40
2018-08-28T19:54:57.528Z,15.30
2018-08-28T19:57:26.127Z,15.30
2018-08-28T19:59:54.855Z,15.30
2018-08-28T20:02:23.349Z,15.10
2018-08-28T20:04:51.904Z,15.10
2018-08-28T20:07:20.463Z,15.10
2018-08-28T20:09:49.730Z,15.00
2018-08-28T20:12:18.502Z,14.90
2018-08-28T20:14:47.086Z,15.10
2018-08-28T20:17:15.520Z,14.90
2018-08-28T20:19:44.147Z,14.70
2018-08-28T20:22:12.911Z,14.60
2018-08-28T20:24:41.263Z,14.60
2018-08-28T20:27:09.745Z,14.50
2018-08-28T20:29:38.577Z,14.40
2018-08-28T20:32:08.353Z,14.30
2018-08-28T20:34:36.936Z,14.20
2018-08-28T20:37:06.412Z,14.10
2018-08-28T20:39:34.981Z,14.10
2018-08-28T20:42:03.308Z,14.00
2018-08-28T20:44:31.618Z,13.90
2018-08-28T20:46:59.918Z,13.80
2018-08-28T20:49:28.299Z,13.70
2018-08-28T20:51:56.597Z,13.60
2018-08-28T20:54:24.980Z,13.70
2018-08-28T20:56:53.357Z,13.60
2018-08-28T20:59:21.819Z,13.50
2018-08-28T21:01:50.088Z,13.40
2018-08-28T21:04:18.454Z,13.40
2018-08-28T21:06:46.845Z,13.40
2018-08-28T21:09:15.126Z,13.40
2018-08-28T21:11:43.550Z,13.40
2018-08-28T21:14:11.838Z,13.40
2018-08-28T21:16:40.201Z,13.40
2018-08-28T21:19:08.565Z,13.60
2018-08-28T21:21:36.942Z,13.60
2018-08-28T21:24:05.343Z,13.60
2018-08-28T21:26:33.620Z,13.60
2018-08-28T21:29:01.979Z,13.60
2018-08-28T21:31:30.214Z,13.60
2018-08-28T21:33:58.541Z,13.70
2018-08-28T21:36:26.871Z,13.70
2018-08-28T21:38:55.171Z,13.70
2018-08-28T21:41:23.451Z,13.70
2018-08-28T21:43:51.733Z,13.60
2018-08-28T21:46:20.275Z,13.50
2018-08-28T21:48:48.569Z,13.40
2018-08-28T21:51:16.874Z,13.30
2018-08-28T21:53:45.130Z,13.30
2018-08-28T21:56:13.481Z,13.40
2018-08-28T21:58:41.749Z,13.40
2018-08-28T22:01:10.015Z,13.40
2018-08-28T22:03:38.680Z,13.30
2018-08-28T22:06:11.468Z,13.20
2018-08-28T22:08:39.826Z,13.20
2018-08-28T22:11:08.237Z,13.30
2018-08-28T22:13:36.518Z,13.30
2018-08-28T22:16:04.776Z,13.10
2018-08-28T22:18:33.026Z,13.00
2018-08-28T22:21:01.286Z,13.00
2018-08-28T22:23:29.547Z,13.10
2018-08-28T22:25:57.799Z,13.10
2018-08-28T22:28:26.078Z,13.10
2018-08-28T22:30:54.319Z,13.00
2018-08-28T22:33:22.581Z,13.10
2018-08-28T22:35:50.863Z,12.90
2018-08-28T22:38:19.119Z,12.80
2018-08-28T22:40:47.382Z,12.80
2018-08-28T22:43:22.871Z,12.70
2018-08-28T22:45:51.469Z,12.80
2018-08-28T22:48:19.858Z,12.70
2018-08-28T22:50:48.342Z,12.70
2018-08-28T22:53:16.627Z,12.70
2018-08-28T22:55:44.974Z,12.70
2018-08-28T22:58:13.218Z,12.70
2018-08-28T23:00:41.493Z,12.60
2018-08-28T23:03:09.740Z,12.50
2018-08-28T23:05:37.987Z,12.50
2018-08-28T23:08:06.227Z,12.50
2018-08-28T23:10:34.481Z,12.40
2018-08-28T23:13:02.714Z,12.50
2018-08-28T23:15:30.963Z,12.50
2018-08-28T23:17:59.251Z,12.50
2018-08-28T23:20:27.511Z,12.40
2018-08-28T23:22:55.793Z,12.40
2018-08-28T23:25:24.069Z,12.30
2018-08-28T23:27:52.318Z,12.20
2018-08-28T23:30:20.566Z,12.10
2018-08-28T23:32:48.832Z,12.00
2018-08-28T23:35:17.086Z,11.80
2018-08-28T23:37:45.330Z,11.70
2018-08-28T23:40:13.595Z,11.60
2018-08-28T23:42:41.842Z,11.50
2018-08-28T23:45:10.098Z,11.40
2018-08-28T23:47:38.347Z,11.30
2018-08-28T23:50:06.663Z,11.30
2018-08-28T23:52:34.905Z,11.10
2018-08-28T23:55:03.171Z,11.10
2018-08-28T23:57:31.479Z,11.00
2018-08-28T23:59:59.750Z,11.10
